Time,TemperatureF,DewpointF,PressureIn,WindDirection,WindDirectionDegrees,WindSpeedMPH,WindSpeedGustMPH,Humidity,HourlyPrecipIn,Conditions,Clouds,dailyrainin,SoftwareType,DateUTC
2014-04-23 00:02:00,40.0,25.0,-100.00,NNE,27,2.0,3.0,54,-99.99,,,-99.99,,2014-04-23 07:02:00,
2014-04-23 00:22:00,39.0,26.0,-100.00,NE,34,4.0,5.0,59,-99.99,,,-99.99,,2014-04-23 07:22:00,
2014-04-23 00:33:00,39.0,26.0,-100.00,NE,34,4.0,5.0,59,-99.99,,,-99.99,,2014-04-23 07:33:00,
2014-04-23 00:52:00,37.0,27.0,-100.00,SSW,200,2.0,4.0,64,0.00,,,-99.99,,2014-04-23 07:52:00,
2014-04-23 01:01:00,37.0,27.0,-100.00,SSW,200,2.0,4.0,64,0.00,,,-99.99,,2014-04-23 08:01:00,
2014-04-23 01:22:00,39.0,24.0,-100.00,West,280,4.0,7.0,54,-99.99,,,-99.99,,2014-04-23 08:22:00,
2014-04-23 01:32:00,39.0,24.0,-100.00,West,280,4.0,7.0,54,-99.99,,,-99.99,,2014-04-23 08:32:00,
2014-04-23 01:52:00,36.0,25.0,-100.00,NE,44,4.0,6.0,66,0.00,,,-99.99,,2014-04-23 08:52:00,
2014-04-23 02:02:00,36.0,25.0,-100.00,NE,44,4.0,6.0,66,0.00,,,-99.99,,2014-04-23 09:02:00,
2014-04-23 02:22:00,36.0,25.0,-100.00,NE,38,4.0,5.0,66,0.00,,,-99.99,,2014-04-23 09:22:00,
2014-04-23 02:30:00,34.0,25.0,-100.00,SE,143,1.0,2.0,69,0.00,,,-99.99,,2014-04-23 09:30:00,
2014-04-23 02:33:00,36.0,25.0,-100.00,NE,38,4.0,5.0,66,0.00,,,-99.99,,2014-04-23 09:33:00,
2014-04-23 02:54:00,35.0,26.0,-100.00,East,90,4.0,4.0,69,0.00,,,-99.99,,2014-04-23 09:54:00,
2014-04-23 03:12:00,34.0,25.0,-100.00,SE,143,1.0,2.0,69,0.00,,,-99.99,,2014-04-23 10:12:00,
2014-04-23 03:23:00,34.0,25.0,-100.00,SE,143,1.0,2.0,69,0.00,,,-99.99,,2014-04-23 10:23:00,
2014-04-23 06:22:00,36.0,30.0,-100.00,West,271,2.0,4.0,81,0.00,,,-99.99,,2014-04-23 13:22:00,
2014-04-23 06:32:00,36.0,30.0,-100.00,West,271,2.0,4.0,81,0.00,,,-99.99,,2014-04-23 13:32:00,
2014-04-23 06:52:00,34.0,32.0,-100.00,ESE,104,4.0,4.0,91,0.00,,,-99.99,,2014-04-23 13:52:00,
2014-04-23 07:02:00,34.0,32.0,-100.00,ESE,104,4.0,4.0,91,0.00,,,-99.99,,2014-04-23 14:02:00,
2014-04-23 07:22:00,34.0,33.0,-100.00,East,82,3.0,5.0,96,0.00,,,-99.99,,2014-04-23 14:22:00,
2014-04-23 07:32:00,34.0,33.0,-100.00,East,82,3.0,5.0,96,0.00,,,-99.99,,2014-04-23 14:32:00,
2014-04-23 07:52:00,35.0,34.0,-100.00,ESE,106,2.0,3.0,97,0.00,,,-99.99,,2014-04-23 14:52:00,
2014-04-23 08:02:00,35.0,34.0,-100.00,ESE,106,2.0,3.0,97,0.00,,,-99.99,,2014-04-23 15:02:00,
2014-04-23 08:22:00,35.0,35.0,-100.00,East,93,4.0,7.0,97,0.00,,,-99.99,,2014-04-23 15:22:00,
2014-04-23 08:33:00,35.0,35.0,-100.00,East,93,4.0,7.0,97,0.00,,,-99.99,,2014-04-23 15:33:00,
2014-04-23 08:54:00,36.0,35.0,-100.00,East,95,4.0,5.0,97,0.00,,,-99.99,,2014-04-23 15:54:00,
2014-04-23 09:03:00,36.0,35.0,-100.00,East,95,4.0,5.0,97,0.00,,,-99.99,,2014-04-23 16:03:00,
2014-04-23 09:23:00,37.0,36.0,-100.00,ENE,72,4.0,6.0,96,0.00,,,-99.99,,2014-04-23 16:23:00,
2014-04-23 09:33:00,37.0,36.0,-100.00,ENE,72,4.0,6.0,96,0.00,,,-99.99,,2014-04-23 16:33:00,
2014-04-23 09:53:00,40.0,36.0,-100.00,West,278,6.0,10.0,88,0.00,,,-99.99,,2014-04-23 16:53:00,
2014-04-23 10:03:00,40.0,36.0,-100.00,West,278,6.0,10.0,88,0.00,,,-99.99,,2014-04-23 17:03:00,
2014-04-23 10:24:00,42.0,37.0,-100.00,WSW,257,8.0,12.0,82,0.00,,,-99.99,,2014-04-23 17:24:00,
2014-04-23 10:34:00,42.0,37.0,-100.00,WSW,257,8.0,12.0,82,0.00,,,-99.99,,2014-04-23 17:34:00,
2014-04-23 10:52:00,42.0,35.0,-100.00,West,270,6.0,8.0,74,0.00,,,-99.99,,2014-04-23 17:52:00,
2014-04-23 11:02:00,42.0,35.0,-100.00,West,270,6.0,8.0,74,0.00,,,-99.99,,2014-04-23 18:02:00,
2014-04-23 11:22:00,42.0,36.0,-100.00,WSW,247,10.0,15.0,77,0.00,,,-99.99,,2014-04-23 18:22:00,
2014-04-23 11:32:00,42.0,36.0,-100.00,WSW,247,10.0,15.0,77,0.00,,,-99.99,,2014-04-23 18:32:00,
2014-04-23 11:52:00,45.0,35.0,-100.00,West,278,11.0,18.0,69,0.00,,,-99.99,,2014-04-23 18:52:00,
2014-04-23 12:01:00,45.0,35.0,-100.00,West,278,11.0,18.0,69,0.00,,,-99.99,,2014-04-23 19:01:00,
2014-04-23 12:22:00,46.0,34.0,-100.00,West,275,6.0,8.0,63,0.00,,,-99.99,,2014-04-23 19:22:00,
2014-04-23 12:32:00,46.0,34.0,-100.00,West,275,6.0,8.0,63,0.00,,,-99.99,,2014-04-23 19:32:00,
2014-04-23 12:56:00,47.0,33.0,-100.00,WSW,237,12.0,17.0,58,0.00,,,-99.99,,2014-04-23 19:56:00,
2014-04-23 13:02:00,47.0,33.0,-100.00,WSW,237,12.0,17.0,58,0.00,,,-99.99,,2014-04-23 20:02:00,
2014-04-23 13:22:00,49.0,33.0,-100.00,WSW,247,11.0,16.0,52,0.00,,,-99.99,,2014-04-23 20:22:00,
2014-04-23 13:32:00,49.0,33.0,-100.00,WSW,247,11.0,16.0,52,0.00,,,-99.99,,2014-04-23 20:32:00,
2014-04-23 13:52:00,48.0,31.0,-100.00,West,274,11.0,16.0,51,0.00,,,-99.99,,2014-04-23 20:52:00,
2014-04-23 14:01:00,48.0,31.0,-100.00,West,274,11.0,16.0,51,0.00,,,-99.99,,2014-04-23 21:01:00,
2014-04-23 14:22:00,51.0,28.0,-100.00,WSW,258,13.0,21.0,41,0.00,,,-99.99,,2014-04-23 21:22:00,
2014-04-23 14:34:00,51.0,28.0,-100.00,WSW,258,13.0,21.0,41,0.00,,,-99.99,,2014-04-23 21:34:00,
2014-04-23 14:53:00,50.0,29.0,-100.00,WSW,251,9.0,14.0,43,0.00,,,-99.99,,2014-04-23 21:53:00,
2014-04-23 15:03:00,50.0,29.0,-100.00,WSW,251,9.0,14.0,43,0.00,,,-99.99,,2014-04-23 22:03:00,
2014-04-23 15:54:00,49.0,29.0,-100.00,WSW,243,13.0,18.0,47,0.00,,,-99.99,,2014-04-23 22:54:00,
2014-04-23 16:03:00,49.0,29.0,-100.00,WSW,243,13.0,18.0,47,0.00,,,-99.99,,2014-04-23 23:03:00,
2014-04-23 16:22:00,53.0,26.0,-100.00,WSW,250,13.0,22.0,35,0.00,,,-99.99,,2014-04-23 23:22:00,
2014-04-23 16:33:00,53.0,26.0,-100.00,WSW,250,13.0,22.0,35,0.00,,,-99.99,,2014-04-23 23:33:00,
2014-04-23 16:53:00,51.0,29.0,-100.00,WSW,258,13.0,28.0,42,0.00,,,-99.99,,2014-04-23 23:53:00,
2014-04-23 17:02:00,51.0,29.0,-100.00,WSW,258,13.0,28.0,42,0.00,,,-99.99,,2014-04-24 00:02:00,
2014-04-23 17:22:00,51.0,28.0,-100.00,West,268,9.0,11.0,41,0.00,,,-99.99,,2014-04-24 00:22:00,
2014-04-23 17:32:00,51.0,28.0,-100.00,West,268,9.0,11.0,41,0.00,,,-99.99,,2014-04-24 00:32:00,
2014-04-23 17:52:00,47.0,30.0,-100.00,NNW,342,5.0,7.0,51,0.00,,,-99.99,,2014-04-24 00:52:00,
2014-04-23 18:02:00,47.0,30.0,-100.00,NNW,342,5.0,7.0,51,0.00,,,-99.99,,2014-04-24 01:02:00,
2014-04-23 18:22:00,46.0,33.0,-100.00,NE,45,3.0,5.0,59,0.00,,,-99.99,,2014-04-24 01:22:00,
2014-04-23 18:32:00,46.0,33.0,-100.00,NE,45,3.0,5.0,59,0.00,,,-99.99,,2014-04-24 01:32:00,
2014-04-23 18:52:00,45.0,33.0,-100.00,SE,131,4.0,6.0,63,0.00,,,-99.99,,2014-04-24 01:52:00,
2014-04-23 19:02:00,45.0,33.0,-100.00,SE,131,4.0,6.0,63,0.00,,,-99.99,,2014-04-24 02:02:00,
2014-04-23 19:22:00,45.0,34.0,-100.00,SSE,168,3.0,4.0,67,0.00,,,-99.99,,2014-04-24 02:22:00,
2014-04-23 19:32:00,45.0,34.0,-100.00,SSE,168,3.0,4.0,67,0.00,,,-99.99,,2014-04-24 02:32:00,
2014-04-23 19:42:00,45.0,34.0,-100.00,SSE,168,3.0,4.0,67,0.00,,,-99.99,,2014-04-24 02:42:00,
2014-04-23 20:21:00,44.0,35.0,-100.00,SSW,208,3.0,4.0,71,0.00,,,-99.99,,2014-04-24 03:21:00,
2014-04-23 20:33:00,44.0,35.0,-100.00,SSW,208,3.0,4.0,71,0.00,,,-99.99,,2014-04-24 03:33:00,
2014-04-23 20:54:00,43.0,35.0,-100.00,SW,236,2.0,3.0,73,0.00,,,-99.99,,2014-04-24 03:54:00,
2014-04-23 21:04:00,43.0,35.0,-100.00,SW,236,2.0,3.0,73,0.00,,,-99.99,,2014-04-24 04:04:00,
2014-04-23 21:23:00,44.0,35.0,-100.00,SE,144,2.0,3.0,71,0.00,,,-99.99,,2014-04-24 04:23:00,
2014-04-23 21:33:00,44.0,35.0,-100.00,SE,144,2.0,3.0,71,0.00,,,-99.99,,2014-04-24 04:33:00,
2014-04-23 21:53:00,45.0,35.0,-100.00,WSW,241,4.0,8.0,69,0.00,,,-99.99,,2014-04-24 04:53:00,
2014-04-23 22:03:00,45.0,35.0,-100.00,WSW,241,4.0,8.0,69,0.00,,,-99.99,,2014-04-24 05:03:00,
2014-04-23 22:22:00,45.0,35.0,-100.00,North,352,2.0,3.0,70,0.00,,,-99.99,,2014-04-24 05:22:00,
2014-04-23 22:33:00,45.0,35.0,-100.00,North,352,2.0,3.0,70,0.00,,,-99.99,,2014-04-24 05:33:00,
2014-04-23 22:52:00,44.0,35.0,-100.00,NNE,30,2.0,3.0,71,0.00,,,-99.99,,2014-04-24 05:52:00,
2014-04-23 23:02:00,44.0,35.0,-100.00,NNE,30,2.0,3.0,71,0.00,,,-99.99,,2014-04-24 06:02:00,
2014-04-23 23:22:00,44.0,36.0,-100.00,ENE,64,3.0,4.0,73,0.00,,,-99.99,,2014-04-24 06:22:00,
2014-04-23 23:32:00,44.0,36.0,-100.00,ENE,64,3.0,4.0,73,0.00,,,-99.99,,2014-04-24 06:32:00,
2014-04-23 23:52:00,44.0,37.0,-100.00,NNW,336,0.0,1.0,76,0.00,,,-99.99,,2014-04-24 06:52:00,